Time;durP1;ratioP1;P1;durP2;ratioP2;P2;SDS_P1;SDS_P2;PMS_P1;PMS_P2;Temp;Humidity;BMP_temperature;BMP_pressure;BME280_temperature;BME280_humidity;BME280_pressure;Samples;Min_cycle;Max_cycle;Signal;HPM_P1;HPM_P2
2023/10/23 00:00:26;;;;;;;0.43;0.43;;;;;;;21.84;44.63;100258.25;4266581;30;20127;-56
2023/10/23 00:02:38;;;;;;;1.00;0.50;;;;;;;21.83;44.37;100261.53;4261127;30;20025;-56
2023/10/23 00:04:48;;;;;;;0.80;0.40;;;;;;;21.83;44.70;100268.09;4256043;30;20075;-55
2023/10/23 00:06:59;;;;;;;0.52;0.45;;;;;;;21.83;44.64;100268.09;4256009;30;20040;-54
2023/10/23 00:09:09;;;;;;;0.50;0.50;;;;;;;21.83;44.90;100273.00;4255508;30;20072;-57
2023/10/23 00:13:46;;;;;;;0.65;0.52;;;;;;;21.82;44.83;100277.91;4543336;28;20414;-55
2023/10/23 00:15:56;;;;;;;0.40;0.40;;;;;;;21.82;44.94;100277.91;4545186;28;20041;-54
2023/10/23 00:18:06;;;;;;;0.50;0.50;;;;;;;21.81;44.84;100275.44;4545514;28;20064;-55
2023/10/23 00:20:17;;;;;;;0.50;0.50;;;;;;;21.82;44.49;100277.91;4542953;28;23942;-53
2023/10/23 00:22:27;;;;;;;0.50;0.50;;;;;;;21.81;44.77;100276.28;4544936;28;20033;-56
2023/10/23 00:24:38;;;;;;;0.60;0.45;;;;;;;21.82;44.50;100286.53;4544252;28;20041;-56
2023/10/23 00:26:48;;;;;;;0.50;0.50;;;;;;;21.82;44.94;100279.94;4544921;28;23686;-57
2023/10/23 00:29:00;;;;;;;0.50;0.50;;;;;;;21.78;44.62;100287.69;4543894;28;20029;-57
2023/10/23 00:31:11;;;;;;;0.40;0.40;;;;;;;21.81;44.59;100287.75;4543956;28;20860;-57
2023/10/23 00:33:22;;;;;;;0.60;0.60;;;;;;;21.74;44.88;100276.09;4545800;28;23392;-55
2023/10/23 00:35:32;;;;;;;1.13;0.50;;;;;;;21.79;45.01;100280.72;4552455;28;20496;-57
2023/10/23 00:37:42;;;;;;;0.50;0.50;;;;;;;21.81;44.93;100286.91;4542134;28;20033;-57
2023/10/23 00:39:53;;;;;;;0.70;0.50;;;;;;;21.81;44.93;100293.50;4546157;28;20032;-57
2023/10/23 00:42:04;;;;;;;0.50;0.50;;;;;;;21.80;45.03;100294.69;4546533;28;20041;-58
2023/10/23 00:44:14;;;;;;;0.60;0.43;;;;;;;21.80;44.84;100283.22;4553305;28;20021;-56
2023/10/23 00:46:28;;;;;;;0.50;0.50;;;;;;;21.79;45.00;100290.19;4545007;28;20029;-57
2023/10/23 00:48:38;;;;;;;0.60;0.60;;;;;;;21.80;44.54;100291.81;4559128;28;20948;-55
2023/10/23 00:50:50;;;;;;;1.40;0.70;;;;;;;21.80;44.64;100291.81;4545452;28;20091;-56
2023/10/23 00:53:00;;;;;;;0.50;0.50;;;;;;;21.80;44.73;100291.00;4535430;28;20029;-57
2023/10/23 00:55:11;;;;;;;0.50;0.50;;;;;;;21.80;44.90;100296.75;4546987;28;20042;-57
2023/10/23 00:57:22;;;;;;;0.50;0.50;;;;;;;21.74;44.60;100293.34;4552210;28;20645;-57
2023/10/23 00:59:32;;;;;;;1.95;0.50;;;;;;;21.80;44.77;100299.63;4545509;28;20041;-56
2023/10/23 01:01:45;;;;;;;0.50;0.50;;;;;;;21.80;45.02;100297.56;4544452;28;20500;-57
2023/10/23 01:03:56;;;;;;;0.50;0.50;;;;;;;21.80;44.57;100305.38;4558022;28;20964;-57
2023/10/23 01:06:07;;;;;;;0.60;0.60;;;;;;;21.79;44.65;100300.81;4552025;28;20233;-58
2023/10/23 01:08:18;;;;;;;0.77;0.52;;;;;;;21.76;44.71;100302.44;4553607;28;20409;-56
2023/10/23 01:10:28;;;;;;;0.85;0.60;;;;;;;21.79;44.68;100297.97;4542393;28;20132;-56
2023/10/23 01:12:40;;;;;;;0.80;0.60;;;;;;;21.78;44.99;100294.28;4553466;28;20140;-57
2023/10/23 01:14:51;;;;;;;0.60;0.50;;;;;;;21.78;44.92;100297.16;4562349;28;20036;-57
2023/10/23 01:17:01;;;;;;;0.50;0.50;;;;;;;21.79;44.66;100297.97;4561002;28;20033;-58
2023/10/23 01:19:12;;;;;;;0.60;0.60;;;;;;;21.78;45.01;100296.31;4562305;28;20036;-57
2023/10/23 01:21:22;;;;;;;0.40;0.40;;;;;;;21.78;44.85;100302.91;4561191;28;20039;-57
2023/10/23 01:23:36;;;;;;;0.70;0.50;;;;;;;21.74;44.97;100286.78;4559060;28;20033;-57
2023/10/23 01:25:46;;;;;;;0.60;0.60;;;;;;;21.77;45.16;100298.34;4560328;28;20572;-56
2023/10/23 01:27:56;;;;;;;0.57;0.57;;;;;;;21.78;45.02;100287.69;4552687;28;20037;-55
2023/10/23 01:30:08;;;;;;;0.50;0.50;;;;;;;21.77;44.73;100294.66;4551251;28;20033;-55
2023/10/23 01:32:19;;;;;;;0.60;0.60;;;;;;;21.76;44.94;100293.81;4548231;28;21342;-57
2023/10/23 01:34:29;;;;;;;0.88;0.52;;;;;;;21.76;44.82;100296.69;4549431;28;20060;-58
2023/10/23 01:36:40;;;;;;;0.50;0.50;;;;;;;21.77;45.24;100298.34;4558279;28;20020;-56
2023/10/23 01:38:50;;;;;;;0.40;0.40;;;;;;;21.76;45.52;100293.81;4558283;28;20029;-57
2023/10/23 01:41:01;;;;;;;0.40;0.40;;;;;;;21.76;45.44;100302.44;4542277;28;20531;-57
2023/10/23 01:43:11;;;;;;;0.50;0.50;;;;;;;21.76;45.25;100296.69;4549219;28;21105;-57
2023/10/23 01:45:22;;;;;;;0.75;0.70;;;;;;;21.76;45.57;100296.69;4549503;28;20032;-55
2023/10/23 01:47:33;;;;;;;0.60;0.60;;;;;;;21.76;45.24;100301.59;4557430;28;20071;-57
2023/10/23 01:49:43;;;;;;;0.60;0.60;;;;;;;21.76;45.05;100305.31;4549563;28;20123;-57
2023/10/23 01:51:54;;;;;;;0.70;0.60;;;;;;;21.75;45.48;100300.78;4556867;28;20037;-57
2023/10/23 01:54:05;;;;;;;0.60;0.60;;;;;;;21.75;45.56;100297.91;4557822;28;20067;-57
2023/10/23 01:56:15;;;;;;;0.65;0.60;;;;;;;21.76;45.40;100307.34;4550530;28;20729;-57
2023/10/23 01:58:26;;;;;;;0.75;0.75;;;;;;;21.73;44.97;100303.16;4558044;28;20025;-55
2023/10/23 02:00:36;;;;;;;0.68;0.68;;;;;;;21.75;45.13;100312.28;4551717;28;20041;-57
2023/10/23 02:02:46;;;;;;;0.80;0.80;;;;;;;21.73;44.86;100314.66;4551277;28;20024;-56
2023/10/23 02:04:57;;;;;;;0.60;0.55;;;;;;;21.74;45.32;100316.31;4550534;28;20048;-57
2023/10/23 02:07:08;;;;;;;0.70;0.70;;;;;;;21.74;44.84;100327.81;4551103;28;20064;-56
2023/10/23 02:09:18;;;;;;;0.55;0.55;;;;;;;21.74;44.80;100313.44;4548110;28;20398;-55
2023/10/23 02:11:29;;;;;;;1.45;0.80;;;;;;;21.73;44.75;100314.66;4557615;28;20033;-56
2023/10/23 02:13:39;;;;;;;0.60;0.60;;;;;;;21.64;44.94;100308.34;4549101;28;20049;-58
2023/10/23 02:15:50;;;;;;;2.25;0.80;;;;;;;21.73;44.96;100326.16;4558209;28;20535;-56
2023/10/23 02:18:00;;;;;;;0.60;0.60;;;;;;;21.73;45.31;100323.28;4550665;28;20049;-56
2023/10/23 02:20:11;;;;;;;0.70;0.60;;;;;;;21.73;45.00;100325.31;4556656;28;20029;-57
2023/10/23 02:22:22;;;;;;;0.50;0.50;;;;;;;21.72;44.61;100318.72;4551220;28;20032;-57
2023/10/23 02:24:33;;;;;;;0.63;0.63;;;;;;;21.73;44.50;100331.91;4550723;28;20036;-56
2023/10/23 02:26:43;;;;;;;0.70;0.70;;;;;;;21.72;44.73;100329.41;4548687;28;20428;-57
2023/10/23 02:28:54;;;;;;;0.65;0.60;;;;;;;21.73;44.56;100328.19;4550078;28;20725;-56
2023/10/23 02:31:05;;;;;;;0.98;0.50;;;;;;;21.70;44.89;100326.91;4549885;28;20059;-56
2023/10/23 02:33:15;;;;;;;0.70;0.70;;;;;;;21.72;44.52;100333.09;4548211;28;20036;-57
2023/10/23 02:35:25;;;;;;;0.60;0.60;;;;;;;21.73;44.44;100336.81;4547344;28;20089;-56
2023/10/23 02:37:36;;;;;;;0.65;0.60;;;;;;;21.72;44.74;100333.09;4547485;28;20025;-56
2023/10/23 02:39:46;;;;;;;0.65;0.65;;;;;;;21.72;44.78;100335.97;4533804;28;20037;-57
2023/10/23 02:41:57;;;;;;;0.60;0.60;;;;;;;21.71;44.92;100321.97;4557534;28;20062;-56
2023/10/23 02:44:08;;;;;;;0.60;0.60;;;;;;;21.71;44.33;100340.06;4548052;28;20037;-55
2023/10/23 02:46:18;;;;;;;1.27;0.70;;;;;;;21.71;44.75;100336.34;4550047;28;21268;-55
2023/10/23 02:48:29;;;;;;;0.70;0.70;;;;;;;21.70;45.01;100341.28;4549872;28;20025;-55
2023/10/23 02:50:39;;;;;;;0.60;0.60;;;;;;;21.70;44.66;100341.28;4549374;28;20059;-57
2023/10/23 02:52:49;;;;;;;0.65;0.65;;;;;;;21.69;44.67;100342.47;4548607;28;20064;-55
2023/10/23 02:55:00;;;;;;;0.50;0.50;;;;;;;21.70;44.43;100332.66;4545833;28;20036;-55
2023/10/23 02:57:10;;;;;;;0.68;0.60;;;;;;;21.71;44.59;100339.22;4550494;28;20958;-55
2023/10/23 02:59:21;;;;;;;0.63;0.55;;;;;;;21.68;44.57;100340.81;4548303;28;20024;-57
2023/10/23 03:01:31;;;;;;;0.60;0.60;;;;;;;21.65;44.74;100341.59;4550580;28;20516;-55
2023/10/23 03:03:43;;;;;;;0.70;0.60;;;;;;;21.67;44.28;100347.78;4538758;28;20527;-57
2023/10/23 03:05:53;;;;;;;0.88;0.60;;;;;;;21.70;44.66;100351.94;4555912;28;20031;-57
2023/10/23 03:08:04;;;;;;;0.88;0.68;;;;;;;21.69;44.32;100350.28;4551251;28;20036;-55
2023/10/23 03:10:15;;;;;;;0.93;0.80;;;;;;;21.69;44.59;100353.97;4548030;28;20028;-57
2023/10/23 03:12:26;;;;;;;0.60;0.60;;;;;;;21.63;44.62;100337.41;4550212;28;20040;-56
2023/10/23 03:14:37;;;;;;;0.70;0.70;;;;;;;21.68;44.91;100349.44;4548069;28;20029;-57
2023/10/23 03:16:47;;;;;;;0.85;0.60;;;;;;;21.68;44.28;100345.72;4550426;28;20515;-56
2023/10/23 03:18:57;;;;;;;1.05;0.90;;;;;;;21.69;44.15;100353.97;4549737;28;20075;-56
2023/10/23 03:21:08;;;;;;;0.60;0.60;;;;;;;21.67;44.09;100349.81;4556922;28;20064;-57
2023/10/23 03:23:19;;;;;;;0.73;0.73;;;;;;;21.59;44.11;100343.13;4549385;28;20512;-57
2023/10/23 03:25:30;;;;;;;0.68;0.68;;;;;;;21.66;43.74;100360.47;4549158;28;20119;-57
2023/10/23 03:27:41;;;;;;;0.80;0.70;;;;;;;21.66;43.47;100354.72;4548112;28;20115;-55
2023/10/23 03:29:51;;;;;;;0.60;0.60;;;;;;;21.67;43.38;100358.44;4548875;28;20120;-56
2023/10/23 03:32:02;;;;;;;0.57;0.57;;;;;;;21.67;43.59;100358.44;4548260;28;20037;-57
2023/10/23 03:34:13;;;;;;;0.60;0.60;;;;;;;21.65;43.48;100353.06;4550394;28;21095;-57
2023/10/23 03:36:23;;;;;;;2.05;0.60;;;;;;;21.65;43.48;100353.06;4549853;28;20067;-54
2023/10/23 03:38:33;;;;;;;1.50;1.08;;;;;;;21.66;43.11;100353.91;4548996;28;20028;-57
2023/10/23 03:40:59;;;;;;;0.80;0.80;;;;;;;21.65;43.65;100358.81;4547447;28;20021;-57
2023/10/23 03:43:10;;;;;;;0.80;0.80;;;;;;;21.65;43.27;100353.06;4549502;28;20892;-57
2023/10/23 03:45:20;;;;;;;0.70;0.70;;;;;;;21.65;43.23;100357.97;4546578;28;20156;-56
2023/10/23 03:47:31;;;;;;;0.68;0.68;;;;;;;21.58;43.12;100357.84;4556516;28;20907;-57
2023/10/23 03:49:42;;;;;;;0.75;0.70;;;;;;;21.65;43.43;100366.59;4547403;28;20037;-57
2023/10/23 03:51:52;;;;;;;0.82;0.70;;;;;;;21.64;43.31;100368.66;4548719;28;20075;-55
2023/10/23 03:54:03;;;;;;;0.60;0.60;;;;;;;21.64;43.44;100367.81;4549315;28;20481;-57
2023/10/23 03:56:13;;;;;;;0.70;0.70;;;;;;;21.64;42.82;100371.53;4548666;28;20028;-57
2023/10/23 03:58:24;;;;;;;0.95;0.60;;;;;;;21.64;43.09;100371.53;4549356;28;21448;-55
2023/10/23 04:00:34;;;;;;;0.93;0.68;;;;;;;21.63;43.44;100360.41;4549587;28;20515;-57
2023/10/23 04:02:45;;;;;;;0.63;0.63;;;;;;;21.63;43.35;100358.38;4549448;28;20037;-57
2023/10/23 04:04:56;;;;;;;0.68;0.68;;;;;;;21.64;43.43;100350.59;4548597;28;20033;-57
2023/10/23 04:07:06;;;;;;;1.02;0.70;;;;;;;21.63;43.48;100355.50;4547317;28;20037;-56
2023/10/23 04:09:17;;;;;;;0.60;0.60;;;;;;;21.63;43.31;100361.25;4547854;28;20064;-58
2023/10/23 04:11:27;;;;;;;0.60;0.60;;;;;;;21.62;43.44;100356.72;4548078;28;20116;-57
2023/10/23 04:13:37;;;;;;;0.90;0.77;;;;;;;21.63;43.68;100351.78;4548655;28;20068;-56
2023/10/23 04:15:56;;;;;;;0.80;0.80;;;;;;;21.62;43.59;100353.00;4548075;28;20041;-55
2023/10/23 04:18:07;;;;;;;1.10;0.80;;;;;;;21.61;43.21;100352.16;4549314;28;20028;-57
2023/10/23 04:20:17;;;;;;;0.73;0.73;;;;;;;21.62;43.74;100353.84;4556099;28;20549;-56
2023/10/23 04:22:28;;;;;;;0.63;0.63;;;;;;;21.52;43.76;100351.56;4548767;28;20056;-57
2023/10/23 04:24:38;;;;;;;0.80;0.60;;;;;;;21.60;43.77;100367.75;4547383;28;20469;-57
2023/10/23 04:26:50;;;;;;;0.60;0.60;;;;;;;21.58;43.88;100358.66;4547998;28;26820;-57
2023/10/23 04:29:01;;;;;;;0.73;0.73;;;;;;;21.61;43.80;100359.97;4548605;28;20036;-57
2023/10/23 04:31:11;;;;;;;0.73;0.70;;;;;;;21.60;43.75;100356.25;4548522;28;20041;-57
2023/10/23 04:33:22;;;;;;;0.70;0.70;;;;;;;21.61;43.93;100375.13;4548058;28;20036;-56
2023/10/23 04:35:32;;;;;;;0.73;0.73;;;;;;;21.61;44.14;100369.41;4547371;28;20519;-57
2023/10/23 04:37:43;;;;;;;0.88;0.73;;;;;;;21.61;44.23;100372.25;4547536;28;20119;-55
2023/10/23 04:39:53;;;;;;;1.10;0.82;;;;;;;21.60;44.17;100373.50;4548248;28;20025;-57
2023/10/23 04:42:04;;;;;;;0.70;0.70;;;;;;;21.60;44.12;100367.75;4547455;28;20590;-55
2023/10/23 04:44:14;;;;;;;0.60;0.60;;;;;;;21.60;44.13;100373.50;4547513;28;20384;-56
2023/10/23 04:46:25;;;;;;;0.70;0.70;;;;;;;21.58;44.51;100369.34;4549558;28;21206;-57
2023/10/23 04:48:35;;;;;;;1.50;1.20;;;;;;;21.60;44.34;100367.75;4547997;28;27912;-57
2023/10/23 04:50:45;;;;;;;1.27;0.70;;;;;;;21.60;44.14;100366.91;4547726;28;20056;-58
2023/10/23 04:52:56;;;;;;;0.90;0.90;;;;;;;21.60;44.38;100369.78;4546426;28;20123;-55
2023/10/23 04:55:06;;;;;;;0.80;0.80;;;;;;;21.60;44.62;100378.38;4547287;28;20039;-56
2023/10/23 04:57:17;;;;;;;1.00;0.88;;;;;;;21.60;44.30;100384.13;4546220;28;20041;-57
2023/10/23 04:59:27;;;;;;;1.45;1.00;;;;;;;21.59;44.49;100386.19;4547738;28;20033;-58
2023/10/23 05:01:38;;;;;;;0.85;0.80;;;;;;;21.58;44.21;100393.13;4550406;28;20075;-57
2023/10/23 05:03:48;;;;;;;0.70;0.70;;;;;;;21.59;44.66;100394.81;4550698;28;20582;-57
2023/10/23 05:05:59;;;;;;;0.93;0.80;;;;;;;21.58;44.38;100398.88;4548370;28;20029;-58
2023/10/23 05:08:09;;;;;;;0.82;0.80;;;;;;;21.57;44.12;100397.22;4549877;28;20047;-57
2023/10/23 05:10:20;;;;;;;0.70;0.70;;;;;;;21.58;44.32;100393.13;4552374;28;20028;-57
2023/10/23 05:12:30;;;;;;;1.23;0.80;;;;;;;21.58;44.10;100396.00;4548816;28;20060;-56
2023/10/23 05:14:40;;;;;;;0.80;0.80;;;;;;;21.58;44.81;100386.59;4549684;28;20090;-55
2023/10/23 05:16:51;;;;;;;0.80;0.80;;;;;;;21.58;44.43;100387.38;4550702;28;20064;-58
2023/10/23 05:19:01;;;;;;;0.80;0.80;;;;;;;21.57;44.17;100388.63;4550330;28;20374;-56
2023/10/23 05:21:12;;;;;;;0.70;0.70;;;;;;;21.56;44.15;100392.69;4549446;28;20639;-57
2023/10/23 05:23:23;;;;;;;0.80;0.80;;;;;;;21.52;44.69;100380.28;4550040;28;20021;-57
2023/10/23 05:25:35;;;;;;;0.60;0.60;;;;;;;21.57;44.43;100379.16;4549058;28;20044;-57
2023/10/23 05:27:45;;;;;;;1.15;0.75;;;;;;;21.57;44.75;100379.16;4551013;28;20171;-57
2023/10/23 05:29:56;;;;;;;0.75;0.75;;;;;;;21.56;44.23;100375.47;4549988;28;20163;-57
2023/10/23 05:32:09;;;;;;;0.70;0.70;;;;;;;21.56;44.23;100386.97;4550270;28;20040;-56
2023/10/23 05:34:20;;;;;;;0.80;0.80;;;;;;;21.57;44.62;100382.88;4549066;28;20045;-57
2023/10/23 05:36:31;;;;;;;1.15;0.70;;;;;;;21.57;44.24;100390.63;4552346;28;20037;-58
2023/10/23 05:38:41;;;;;;;1.10;0.80;;;;;;;21.56;44.39;100392.69;4548860;28;20568;-57
2023/10/23 05:40:56;;;;;;;1.48;0.90;;;;;;;21.56;43.86;100392.69;4549985;28;20033;-57
2023/10/23 05:43:06;;;;;;;0.85;0.85;;;;;;;21.56;43.87;100400.47;4549339;28;20036;-56
2023/10/23 05:45:17;;;;;;;0.80;0.80;;;;;;;21.55;43.65;100401.69;4549491;28;21162;-57
2023/10/23 05:47:28;;;;;;;0.80;0.80;;;;;;;21.55;43.64;100402.50;4548858;28;20547;-57
2023/10/23 05:49:38;;;;;;;1.10;0.93;;;;;;;21.54;44.12;100400.84;4548309;28;20107;-57
2023/10/23 05:51:49;;;;;;;1.80;1.10;;;;;;;21.55;43.87;100404.56;4551534;28;20025;-57
2023/10/23 05:53:59;;;;;;;1.15;0.95;;;;;;;21.51;43.73;100403.66;4550001;28;20044;-57
2023/10/23 05:56:09;;;;;;;0.90;0.90;;;;;;;21.55;44.09;100411.13;4548885;28;20037;-56
2023/10/23 05:58:20;;;;;;;0.73;0.73;;;;;;;21.55;44.19;100416.06;4549559;28;20037;-57
2023/10/23 06:00:30;;;;;;;1.00;0.90;;;;;;;21.53;44.37;100404.91;4549082;28;20049;-58
2023/10/23 06:02:41;;;;;;;1.33;1.00;;;;;;;21.54;44.02;100420.13;4548511;28;20029;-55
2023/10/23 06:04:51;;;;;;;0.80;0.80;;;;;;;21.53;44.22;100413.53;4549744;28;20044;-57
2023/10/23 06:07:02;;;;;;;1.10;1.00;;;;;;;21.54;44.38;100418.09;4549512;28;20068;-58
2023/10/23 06:09:13;;;;;;;0.88;0.88;;;;;;;21.53;44.04;100413.53;4548622;28;20057;-57
2023/10/23 06:11:23;;;;;;;0.90;0.90;;;;;;;21.53;44.00;100419.28;4548449;28;20021;-57
2023/10/23 06:13:34;;;;;;;1.20;1.10;;;;;;;21.54;44.32;100415.22;4546724;28;26688;-57
2023/10/23 06:15:45;;;;;;;1.15;1.08;;;;;;;21.54;44.29;100408.63;4549532;28;21079;-56
2023/10/23 06:17:55;;;;;;;0.82;0.82;;;;;;;21.53;44.19;100409.84;4547767;28;20852;-57
2023/10/23 06:20:07;;;;;;;1.55;1.20;;;;;;;21.53;44.63;100416.41;4549791;28;20064;-57
2023/10/23 06:22:17;;;;;;;1.80;1.10;;;;;;;21.45;44.32;100400.25;4548195;28;20801;-57
2023/10/23 06:24:28;;;;;;;1.20;1.10;;;;;;;21.50;44.52;100407.75;4551307;28;20121;-57
2023/10/23 06:26:38;;;;;;;1.80;1.10;;;;;;;21.53;44.20;100410.66;4548818;28;20041;-57
2023/10/23 06:28:49;;;;;;;0.80;0.80;;;;;;;21.54;44.59;100415.22;4548900;28;20040;-57
2023/10/23 06:31:10;;;;;;;1.60;1.00;;;;;;;21.54;44.36;100418.09;4550682;28;20054;-56
2023/10/23 06:33:20;;;;;;;0.80;0.80;;;;;;;21.54;44.54;100409.47;4547447;28;20119;-57
2023/10/23 06:35:31;;;;;;;0.82;0.82;;;;;;;21.52;44.13;100405.31;4550073;28;20094;-57
2023/10/23 06:37:41;;;;;;;1.05;0.90;;;;;;;21.54;44.54;100400.84;4548467;28;20041;-57
2023/10/23 06:39:52;;;;;;;1.70;0.98;;;;;;;21.54;44.28;100403.72;4549207;28;20026;-58
2023/10/23 06:42:02;;;;;;;1.00;0.90;;;;;;;21.53;44.81;100413.53;4549102;28;20156;-57
2023/10/23 06:44:13;;;;;;;1.00;0.93;;;;;;;21.54;44.46;100408.63;4548013;28;20076;-57
2023/10/23 06:46:24;;;;;;;1.48;1.20;;;;;;;21.53;44.58;100406.97;4549181;28;20040;-58
2023/10/23 06:48:34;;;;;;;1.20;1.10;;;;;;;21.53;44.94;100407.78;4549468;28;21013;-55
2023/10/23 06:50:48;;;;;;;1.40;1.10;;;;;;;21.52;44.90;100411.03;4549952;28;20051;-57
2023/10/23 06:52:59;;;;;;;1.10;1.00;;;;;;;21.52;45.08;100405.31;4548786;28;20139;-56
2023/10/23 06:55:09;;;;;;;1.30;1.02;;;;;;;21.52;44.99;100411.88;4549489;28;20670;-56
2023/10/23 06:57:20;;;;;;;1.20;1.10;;;;;;;21.50;44.93;100411.41;4548767;28;20099;-57
2023/10/23 06:59:30;;;;;;;1.20;1.08;;;;;;;21.53;44.69;100413.53;4549794;28;20072;-57
2023/10/23 07:01:41;;;;;;;1.20;1.10;;;;;;;21.52;44.62;100417.63;4550326;28;20079;-57
2023/10/23 07:03:51;;;;;;;1.10;1.00;;;;;;;21.53;44.55;100418.47;4548646;28;20056;-56
2023/10/23 07:06:08;;;;;;;1.20;1.10;;;;;;;21.53;44.68;100406.97;4548670;28;20104;-58
2023/10/23 07:08:19;;;;;;;1.92;1.20;;;;;;;21.52;44.86;100411.88;4548335;28;20033;-56
2023/10/23 07:10:36;;;;;;;1.20;1.10;;;;;;;21.52;45.04;100411.88;4548606;28;20038;-55
2023/10/23 07:12:46;;;;;;;1.60;1.50;;;;;;;21.52;45.32;100411.03;4549101;28;20029;-56
2023/10/23 07:14:57;;;;;;;1.52;1.30;;;;;;;21.53;45.39;100410.66;4548240;28;20056;-56
2023/10/23 07:17:07;;;;;;;1.67;1.27;;;;;;;21.52;45.58;100416.78;4550782;28;20032;-56
2023/10/23 07:19:18;;;;;;;1.75;1.30;;;;;;;21.52;45.50;100416.78;4549188;28;20033;-56
2023/10/23 07:21:28;;;;;;;1.40;1.20;;;;;;;21.52;45.68;100417.63;4547936;28;20032;-56
2023/10/23 07:23:39;;;;;;;1.30;1.20;;;;;;;21.51;45.76;100413.09;4547465;28;20115;-57
2023/10/23 07:26:11;;;;;;;1.77;1.30;;;;;;;21.53;45.61;100418.47;4549638;28;20013;-56
2023/10/23 07:28:21;;;;;;;1.50;1.25;;;;;;;21.51;45.60;100415.97;4547066;28;20756;-56
2023/10/23 07:30:31;;;;;;;1.20;1.10;;;;;;;21.50;45.15;100420.03;4556010;28;20035;-57
2023/10/23 07:32:42;;;;;;;1.35;1.25;;;;;;;21.50;45.55;100420.03;4546790;28;20064;-58
2023/10/23 07:34:52;;;;;;;1.77;1.30;;;;;;;21.51;45.05;100427.47;4547569;28;20358;-57
2023/10/23 07:37:03;;;;;;;1.30;1.17;;;;;;;21.51;45.54;100420.88;4547346;28;20028;-57
2023/10/23 07:39:13;;;;;;;2.15;1.40;;;;;;;21.45;45.23;100423.25;4547356;28;20040;-56
2023/10/23 07:41:24;;;;;;;1.52;1.15;;;;;;;21.50;45.71;100437.28;4550195;28;20037;-56
2023/10/23 07:43:34;;;;;;;1.35;1.25;;;;;;;21.47;45.77;100423.66;4563803;28;20409;-57
2023/10/23 07:45:45;;;;;;;1.40;1.20;;;;;;;21.49;45.46;100435.63;4551455;28;20038;-57
2023/10/23 07:47:55;;;;;;;1.48;1.13;;;;;;;21.50;45.91;100431.53;4546996;28;23037;-57
2023/10/23 07:50:06;;;;;;;1.40;1.30;;;;;;;21.50;46.03;100431.53;4548240;28;20516;-57
2023/10/23 07:52:16;;;;;;;1.13;1.02;;;;;;;21.50;46.08;100431.53;4548329;28;20079;-56
2023/10/23 07:54:27;;;;;;;1.90;1.10;;;;;;;21.43;45.97;100419.91;4548999;28;20083;-58
2023/10/23 07:56:37;;;;;;;1.63;1.20;;;;;;;21.51;46.43;100427.47;4548858;28;20044;-59
2023/10/23 07:58:47;;;;;;;1.58;1.40;;;;;;;21.51;46.55;100427.47;4546956;28;20393;-57
2023/10/23 08:01:16;;;;;;;2.67;1.65;;;;;;;21.52;46.08;100426.25;4548266;28;20017;-57
2023/10/23 08:03:26;;;;;;;2.70;1.42;;;;;;;21.53;46.39;100424.22;4547459;28;20647;-58
2023/10/23 08:05:37;;;;;;;1.73;1.35;;;;;;;21.52;46.27;100423.38;4547008;28;20119;-57
2023/10/23 08:07:47;;;;;;;1.40;1.30;;;;;;;21.52;45.97;100417.63;4547723;28;20037;-57
2023/10/23 08:09:58;;;;;;;1.73;1.20;;;;;;;21.52;46.02;100429.13;4548532;28;20061;-57
2023/10/23 08:12:08;;;;;;;1.20;1.10;;;;;;;21.52;45.99;100417.63;4547071;28;20853;-57
2023/10/23 08:14:19;;;;;;;1.30;1.13;;;;;;;21.51;46.43;100421.72;4548949;28;20025;-57
2023/10/23 08:16:30;;;;;;;1.40;1.30;;;;;;;21.51;46.56;100427.47;4549187;28;20024;-57
2023/10/23 08:18:41;;;;;;;1.63;1.30;;;;;;;21.50;46.78;100420.03;4547233;28;20079;-56
2023/10/23 08:20:51;;;;;;;1.40;1.30;;;;;;;21.52;46.67;100419.66;4547061;28;20041;-57
2023/10/23 08:23:02;;;;;;;1.30;1.20;;;;;;;21.51;46.17;100421.72;4546949;28;20025;-57
2023/10/23 08:25:12;;;;;;;1.20;1.10;;;;;;;21.50;46.77;100420.03;4547260;28;20047;-57
2023/10/23 08:27:24;;;;;;;1.45;1.35;;;;;;;21.49;46.56;100424.13;4548049;28;20046;-58
2023/10/23 08:29:35;;;;;;;2.08;1.27;;;;;;;21.49;46.17;100421.25;4548369;28;20865;-57
2023/10/23 08:31:45;;;;;;;2.05;1.40;;;;;;;21.49;46.40;100426.16;4547734;28;20064;-55
2023/10/23 08:33:56;;;;;;;2.13;1.30;;;;;;;21.47;46.70;100420.78;4548903;28;20049;-56
2023/10/23 08:36:06;;;;;;;1.52;1.30;;;;;;;21.49;46.61;100420.41;4551775;28;20021;-57
2023/10/23 08:38:16;;;;;;;1.40;1.30;;;;;;;21.44;46.75;100415.81;4550651;28;20048;-57
2023/10/23 08:40:27;;;;;;;1.58;1.40;;;;;;;21.47;46.86;100420.78;4550481;28;20041;-57
2023/10/23 08:42:38;;;;;;;1.40;1.30;;;;;;;21.47;46.71;100411.38;4550009;28;20037;-56
2023/10/23 08:44:50;;;;;;;1.30;1.20;;;;;;;21.46;46.62;100419.16;4550352;28;20036;-57
2023/10/23 08:47:02;;;;;;;2.20;1.25;;;;;;;21.47;46.11;100415.06;4550844;28;20039;-57
2023/10/23 08:49:13;;;;;;;2.08;1.30;;;;;;;21.46;45.78;100416.28;4552468;28;20147;-57
2023/10/23 08:51:23;;;;;;;2.10;1.20;;;;;;;21.45;46.28;100411.75;4550234;28;20041;-57
2023/10/23 08:53:44;;;;;;;1.40;1.30;;;;;;;21.46;46.39;100412.56;4550979;28;20029;-57
2023/10/23 08:55:54;;;;;;;1.52;1.42;;;;;;;21.46;46.13;100413.41;4550513;28;20864;-57
2023/10/23 08:58:05;;;;;;;1.05;0.95;;;;;;;21.45;46.21;100410.91;4549480;28;20103;-57
2023/10/23 09:00:15;;;;;;;1.15;1.05;;;;;;;21.45;45.93;100408.88;4549918;28;20079;-57
2023/10/23 09:02:27;;;;;;;1.30;1.20;;;;;;;21.44;45.95;100404.31;4550203;28;21497;-57
2023/10/23 09:04:38;;;;;;;1.42;1.30;;;;;;;21.44;45.46;100404.31;4558711;28;20720;-57
2023/10/23 09:06:48;;;;;;;1.67;1.27;;;;;;;21.44;45.76;100397.75;4550605;28;20078;-57
2023/10/23 09:08:59;;;;;;;1.38;1.10;;;;;;;21.44;45.95;100398.59;4550036;28;20029;-57
2023/10/23 09:11:10;;;;;;;1.23;1.05;;;;;;;21.41;46.21;100398.50;4550651;28;20193;-57
2023/10/23 09:13:23;;;;;;;1.15;1.00;;;;;;;21.43;45.89;100396.94;4548825;28;20057;-57
2023/10/23 09:15:34;;;;;;;1.20;1.10;;;;;;;21.43;46.01;100391.19;4549989;28;20023;-57
2023/10/23 09:17:44;;;;;;;1.17;1.08;;;;;;;21.43;46.03;100399.81;4549836;28;20691;-57
2023/10/23 09:19:55;;;;;;;1.83;1.23;;;;;;;21.43;45.98;100390.34;4550609;28;20070;-57
2023/10/23 09:22:10;;;;;;;1.27;1.10;;;;;;;21.43;46.24;100396.09;4548652;28;20385;-57
2023/10/23 09:24:21;;;;;;;1.40;1.27;;;;;;;21.37;45.99;100377.50;4550146;28;20044;-57
2023/10/23 09:26:31;;;;;;;1.20;1.00;;;;;;;21.38;45.82;100387.78;4550774;28;20041;-56
2023/10/23 09:28:42;;;;;;;1.90;1.08;;;;;;;21.43;46.25;100394.06;4566132;28;20036;-57
2023/10/23 09:30:53;;;;;;;2.38;1.10;;;;;;;21.43;46.00;100390.34;4549131;28;20103;-57
2023/10/23 09:33:06;;;;;;;1.17;1.00;;;;;;;21.42;45.75;100383.75;4549640;28;20087;-57
2023/10/23 09:35:16;;;;;;;1.40;1.27;;;;;;;21.35;46.23;100369.28;4557858;28;20086;-56
2023/10/23 09:37:27;;;;;;;1.40;1.20;;;;;;;21.42;45.69;100380.09;4550204;28;20441;-57
2023/10/23 09:39:39;;;;;;;1.25;1.00;;;;;;;21.43;45.68;100381.72;4550593;28;20029;-57
2023/10/23 09:41:50;;;;;;;1.10;1.00;;;;;;;21.42;45.90;100380.09;4551261;28;20024;-57
2023/10/23 09:44:03;;;;;;;1.20;1.10;;;;;;;21.40;45.68;100374.72;4550019;28;20116;-58
2023/10/23 09:46:14;;;;;;;1.73;1.10;;;;;;;21.40;45.87;100380.47;4548712;28;20056;-56
2023/10/23 09:48:27;;;;;;;1.30;1.00;;;;;;;21.44;45.81;100389.13;4548594;28;20108;-56
2023/10/23 09:50:39;;;;;;;2.13;1.20;;;;;;;21.42;45.96;100383.75;4548432;28;20033;-56
2023/10/23 09:52:55;;;;;;;1.50;1.10;;;;;;;21.44;45.49;100381.34;4550990;28;20045;-57
2023/10/23 09:55:09;;;;;;;1.20;1.08;;;;;;;21.44;45.68;100380.50;4549832;28;20027;-57
2023/10/23 09:57:23;;;;;;;1.15;0.98;;;;;;;21.43;45.90;100378.88;4548750;28;20573;-57
2023/10/23 09:59:42;;;;;;;2.35;1.30;;;;;;;21.42;46.36;100383.75;4548989;28;20031;-56
2023/10/23 10:01:57;;;;;;;1.20;1.10;;;;;;;21.43;45.65;100376.84;4549012;28;20025;-56
2023/10/23 10:04:16;;;;;;;1.90;1.38;;;;;;;21.43;45.97;100373.97;4549284;28;21359;-57
2023/10/23 10:06:27;;;;;;;1.10;1.00;;;;;;;21.35;46.17;100366.41;4548684;28;20767;-57
2023/10/23 10:08:41;;;;;;;2.05;1.10;;;;;;;21.42;45.88;100372.28;4549153;28;20024;-56
2023/10/23 10:10:53;;;;;;;1.30;1.00;;;;;;;21.41;45.87;100372.66;4549055;28;21282;-55